createdAt,value
2019-02-18T00:01:38.411Z,98674.95
2019-02-18T00:04:09.642Z,98677.01
2019-02-18T00:06:40.078Z,98677.64
2019-02-18T00:09:10.202Z,98675.59
2019-02-18T00:11:40.627Z,98675.84
2019-02-18T00:14:10.969Z,98666.11
2019-02-18T00:16:41.527Z,98666.11
2019-02-18T00:19:11.754Z,98674.68
2019-02-18T00:21:42.170Z,98676.30
2019-02-18T00:24:12.321Z,98683.02
2019-02-18T00:26:42.641Z,98673.67
2019-02-18T00:29:12.867Z,98677.88
2019-02-18T00:31:43.047Z,98669.19
2019-02-18T00:34:13.363Z,98675.41
2019-02-18T00:36:43.598Z,98677.66
2019-02-18T00:39:13.782Z,98678.56
2019-02-18T00:41:44.029Z,98682.80
2019-02-18T00:44:14.214Z,98676.10
2019-02-18T00:46:44.500Z,98685.13
2019-02-18T00:49:14.643Z,98679.55
2019-02-18T00:51:44.775Z,98675.09
2019-02-18T00:54:14.921Z,98668.84
2019-02-18T00:56:45.093Z,98672.13
2019-02-18T00:59:15.343Z,98668.05
2019-02-18T01:01:45.611Z,98667.03
2019-02-18T01:04:15.783Z,98671.03
2019-02-18T01:06:45.950Z,98673.77
2019-02-18T01:09:16.166Z,98671.34
2019-02-18T01:11:46.349Z,98677.58
2019-02-18T01:14:16.570Z,98673.39
2019-02-18T01:16:46.772Z,98678.80
2019-02-18T01:19:18.022Z,98678.80
2019-02-18T01:21:48.117Z,98672.18
2019-02-18T01:24:18.351Z,98674.13
2019-02-18T01:26:49.165Z,98678.92
2019-02-18T01:29:19.494Z,98673.63
2019-02-18T01:31:49.610Z,98671.77
2019-02-18T01:34:19.931Z,98674.33
2019-02-18T01:36:50.050Z,98674.45
2019-02-18T01:39:20.346Z,98671.60
2019-02-18T01:41:50.592Z,98668.53
2019-02-18T01:44:20.762Z,98672.02
2019-02-18T01:46:50.977Z,98673.45
2019-02-18T01:49:21.355Z,98669.98
2019-02-18T01:51:51.557Z,98671.91
2019-02-18T01:54:21.717Z,98670.19
2019-02-18T01:56:51.853Z,98661.41
2019-02-18T01:59:22.214Z,98661.91
2019-02-18T02:01:52.933Z,98656.02
2019-02-18T02:04:23.258Z,98658.06
2019-02-18T02:06:53.446Z,98658.07
2019-02-18T02:09:23.641Z,98661.65
2019-02-18T02:11:53.773Z,98655.13
2019-02-18T02:14:24.003Z,98651.05
2019-02-18T02:16:54.365Z,98652.59
2019-02-18T02:19:24.512Z,98648.70
2019-02-18T02:21:54.727Z,98648.70
2019-02-18T02:24:24.876Z,98648.81
2019-02-18T02:26:55.069Z,98645.66
2019-02-18T02:29:25.190Z,98650.13
2019-02-18T02:31:55.478Z,98642.72
2019-02-18T02:34:25.904Z,98642.72
2019-02-18T02:36:56.122Z,98648.09
2019-02-18T02:39:26.270Z,98648.31
2019-02-18T02:41:56.349Z,98649.52
2019-02-18T02:44:26.576Z,98648.30
2019-02-18T02:46:56.742Z,98639.75
2019-02-18T02:49:26.886Z,98645.44
2019-02-18T02:51:58.093Z,98644.54
2019-02-18T02:54:28.283Z,98645.36
2019-02-18T02:56:58.417Z,98644.22
2019-02-18T02:59:28.904Z,98645.03
2019-02-18T03:01:59.178Z,98644.32
2019-02-18T03:04:29.801Z,98643.39
2019-02-18T03:07:00.138Z,98637.91
2019-02-18T03:09:30.512Z,98640.84
2019-02-18T03:12:00.668Z,98646.68
2019-02-18T03:14:31.366Z,98642.06
2019-02-18T03:17:01.759Z,98643.09
2019-02-18T03:19:31.920Z,98639.13
2019-02-18T03:22:03.147Z,98639.94
2019-02-18T03:24:33.578Z,98639.00
2019-02-18T03:27:03.698Z,98640.44
2019-02-18T03:30:06.155Z,98635.43
2019-02-18T03:32:45.954Z,98635.04
2019-02-18T03:35:16.219Z,98628.31
2019-02-18T03:37:46.314Z,98624.84
2019-02-18T03:40:16.489Z,98628.63
2019-02-18T03:42:46.687Z,98641.33
2019-02-18T03:45:17.101Z,98645.99
2019-02-18T03:47:47.203Z,98644.77
2019-02-18T03:50:17.486Z,98637.33
2019-02-18T03:52:47.632Z,98636.73
2019-02-18T03:55:17.925Z,98634.80
2019-02-18T03:57:48.145Z,98635.23
2019-02-18T04:00:19.797Z,98642.83
2019-02-18T04:02:50.166Z,98638.57
2019-02-18T04:05:20.534Z,98639.89
2019-02-18T04:07:50.808Z,98635.61
2019-02-18T04:10:22.012Z,98637.31
2019-02-18T04:12:52.138Z,98638.83
2019-02-18T04:15:26.095Z,98643.10
2019-02-18T04:17:56.351Z,98645.92
2019-02-18T04:20:27.053Z,98660.45
2019-02-18T04:22:57.498Z,98647.14
2019-02-18T04:25:27.985Z,98646.81
2019-02-18T04:27:58.147Z,98642.05
2019-02-18T04:30:28.561Z,98630.86
2019-02-18T04:32:58.790Z,98631.08
2019-02-18T04:35:28.923Z,98630.98
2019-02-18T04:37:59.143Z,98637.60
2019-02-18T04:40:29.421Z,98637.23
2019-02-18T04:42:59.565Z,98642.44
2019-02-18T04:45:29.844Z,98643.73
2019-02-18T04:48:00.276Z,98638.66
2019-02-18T04:50:30.769Z,98648.70
2019-02-18T04:53:01.217Z,98640.56
2019-02-18T04:55:31.414Z,98643.39
2019-02-18T04:58:01.548Z,98647.09
2019-02-18T05:00:31.858Z,98640.75
2019-02-18T05:03:02.153Z,98641.07
2019-02-18T05:05:34.354Z,98646.86
2019-02-18T05:08:04.292Z,98645.13
2019-02-18T05:10:36.347Z,98643.63
2019-02-18T05:13:06.517Z,98641.16
2019-02-18T05:15:36.753Z,98640.62
2019-02-18T05:18:07.013Z,98645.89
2019-02-18T05:20:37.296Z,98634.70
2019-02-18T05:23:07.429Z,98636.63
2019-02-18T05:25:37.573Z,98646.00
2019-02-18T05:28:07.674Z,98641.89
2019-02-18T05:30:39.215Z,98641.09
2019-02-18T05:33:09.443Z,98641.09
2019-02-18T05:35:39.691Z,98641.30
2019-02-18T05:38:10.339Z,98643.54
2019-02-18T05:44:30.731Z,98633.78
2019-02-18T05:47:01.159Z,98637.69
2019-02-18T05:49:31.301Z,98631.58
2019-02-18T05:52:01.565Z,98626.33
2019-02-18T05:54:31.780Z,98627.14
2019-02-18T05:57:01.968Z,98633.31
2019-02-18T05:59:32.215Z,98628.31
2019-02-18T06:02:02.591Z,98623.20
2019-02-18T06:04:32.894Z,98620.77
2019-02-18T06:07:03.566Z,98623.61
2019-02-18T06:09:34.023Z,98627.13
2019-02-18T06:12:04.258Z,98630.56
2019-02-18T06:14:34.458Z,98626.10
2019-02-18T06:17:04.625Z,98628.25
2019-02-18T06:19:35.070Z,98631.72
2019-02-18T06:22:05.649Z,98634.44
2019-02-18T06:24:36.055Z,98634.97
2019-02-18T06:27:06.447Z,98632.67
2019-02-18T06:29:36.604Z,98630.45
2019-02-18T06:32:07.020Z,98641.55
2019-02-18T06:34:37.491Z,98642.48
2019-02-18T06:37:07.906Z,98641.61
2019-02-18T06:39:41.665Z,98641.61
2019-02-18T06:42:11.237Z,98641.91
2019-02-18T06:44:53.392Z,98650.45
2019-02-18T06:47:26.098Z,98651.74
2019-02-18T06:49:56.238Z,98654.30
2019-02-18T06:52:26.569Z,98652.19
2019-02-18T06:54:56.820Z,98651.98
2019-02-18T06:57:55.159Z,98654.05
2019-02-18T07:00:40.499Z,98657.42
2019-02-18T07:03:21.812Z,98659.86
2019-02-18T07:05:56.965Z,98659.28
2019-02-18T07:09:01.211Z,98662.75
2019-02-18T07:11:50.869Z,98658.38
2019-02-18T07:14:23.197Z,98668.39
2019-02-18T07:16:53.654Z,98668.54
2019-02-18T07:19:23.977Z,98664.92
2019-02-18T07:21:54.132Z,98659.66
2019-02-18T07:24:24.436Z,98658.44
2019-02-18T07:26:54.971Z,98655.52
2019-02-18T07:29:25.448Z,98652.08
2019-02-18T07:31:55.888Z,98644.77
2019-02-18T07:34:26.215Z,98650.28
2019-02-18T07:36:56.540Z,98645.50
2019-02-18T07:39:27.408Z,98649.20
2019-02-18T07:41:57.550Z,98646.68
2019-02-18T07:44:28.112Z,98647.69
2019-02-18T07:46:58.595Z,98648.09
2019-02-18T07:49:28.967Z,98638.31
2019-02-18T07:51:59.154Z,98643.72
2019-02-18T07:54:29.724Z,98640.14
2019-02-18T07:57:00.258Z,98641.66
2019-02-18T07:59:30.837Z,98638.89
2019-02-18T08:02:01.236Z,98628.86
2019-02-18T08:04:31.465Z,98628.83
2019-02-18T08:07:02.065Z,98631.13
2019-02-18T08:09:32.610Z,98633.25
2019-02-18T08:12:02.808Z,98624.69
2019-02-18T08:14:40.133Z,98626.21
2019-02-18T08:17:10.289Z,98621.00
2019-02-18T08:19:40.468Z,98623.31
2019-02-18T08:22:10.760Z,98630.11
2019-02-18T08:24:41.243Z,98627.55
2019-02-18T08:27:11.583Z,98621.44
2019-02-18T08:29:41.944Z,98617.77
2019-02-18T08:32:12.294Z,98618.34
2019-02-18T08:34:42.533Z,98624.45
2019-02-18T08:37:12.800Z,98625.33
2019-02-18T08:39:42.950Z,98617.60
2019-02-18T08:42:13.075Z,98624.81
2019-02-18T08:44:43.804Z,98620.91
2019-02-18T08:47:14.214Z,98621.89
2019-02-18T08:49:44.499Z,98621.30
2019-02-18T08:52:14.778Z,98615.69
2019-02-18T08:54:45.012Z,98612.69
2019-02-18T08:57:15.150Z,98611.45
2019-02-18T08:59:45.559Z,98616.34
2019-02-18T09:02:15.809Z,98617.11
2019-02-18T09:04:46.025Z,98614.91
2019-02-18T09:07:16.628Z,98619.51
2019-02-18T09:09:47.069Z,98613.47
2019-02-18T09:12:17.454Z,98606.53
2019-02-18T09:14:47.739Z,98603.76
2019-02-18T09:17:18.011Z,98604.36
2019-02-18T09:19:48.158Z,98595.45
2019-02-18T09:22:35.835Z,98602.16
2019-02-18T09:25:18.111Z,98599.89
2019-02-18T09:27:50.302Z,98593.81
2019-02-18T09:30:24.723Z,98593.89
2019-02-18T09:32:55.799Z,98594.91
2019-02-18T09:35:26.138Z,98593.42
2019-02-18T09:37:56.396Z,98591.55
2019-02-18T09:40:26.649Z,98585.66
2019-02-18T09:42:56.751Z,98590.91
2019-02-18T09:45:27.054Z,98587.72
2019-02-18T09:47:57.264Z,98579.66
2019-02-18T09:50:27.470Z,98581.42
2019-02-18T09:52:57.646Z,98585.00
2019-02-18T09:55:27.745Z,98583.50
2019-02-18T09:57:58.037Z,98577.84
2019-02-18T10:00:28.325Z,98570.94
2019-02-18T10:02:58.515Z,98573.31
2019-02-18T10:05:28.670Z,98568.52
2019-02-18T10:07:58.900Z,98570.34
2019-02-18T10:10:29.056Z,98562.13
2019-02-18T10:12:59.777Z,98559.61
2019-02-18T10:15:30.285Z,98559.99
2019-02-18T10:18:00.668Z,98555.42
2019-02-18T10:20:30.850Z,98553.34
2019-02-18T10:23:01.028Z,98551.27
2019-02-18T10:25:31.409Z,98554.10
2019-02-18T10:28:02.205Z,98550.60
2019-02-18T10:30:34.574Z,98547.02
2019-02-18T10:33:05.103Z,98543.75
2019-02-18T10:35:35.732Z,98535.41
2019-02-18T10:38:06.095Z,98538.67
2019-02-18T10:40:36.282Z,98528.38
2019-02-18T10:43:06.474Z,98530.50
2019-02-18T10:45:36.766Z,98532.24
2019-02-18T10:48:06.981Z,98534.88
2019-02-18T10:50:37.210Z,98530.50
2019-02-18T10:53:07.413Z,98519.62
2019-02-18T10:55:37.595Z,98520.74
2019-02-18T10:58:08.830Z,98509.88
2019-02-18T11:00:39.634Z,98509.79
2019-02-18T11:03:09.888Z,98510.70
2019-02-18T11:05:40.409Z,98503.62
2019-02-18T11:08:10.961Z,98499.00
2019-02-18T11:10:41.355Z,98495.59
2019-02-18T11:13:11.569Z,98482.03
2019-02-18T11:15:42.787Z,98477.00
2019-02-18T11:18:13.195Z,98477.20
2019-02-18T11:20:43.401Z,98472.53
2019-02-18T11:23:13.536Z,98461.87
2019-02-18T11:25:44.406Z,98456.39
2019-02-18T11:28:14.680Z,98461.21
2019-02-18T11:30:45.011Z,98453.55
2019-02-18T11:33:15.271Z,98455.41
2019-02-18T11:35:45.655Z,98451.83
2019-02-18T11:38:16.961Z,98439.71
2019-02-18T11:40:47.595Z,98439.71
2019-02-18T11:43:17.904Z,98435.39
2019-02-18T11:45:48.378Z,98436.94
2019-02-18T11:48:18.650Z,98434.31
2019-02-18T11:50:49.202Z,98426.48
2019-02-18T11:53:19.535Z,98428.05
2019-02-18T11:55:49.957Z,98418.47
2019-02-18T11:58:20.259Z,98412.82
2019-02-18T12:00:50.869Z,98408.86
2019-02-18T12:03:21.359Z,98402.40
2019-02-18T12:05:51.660Z,98400.55
2019-02-18T12:08:21.850Z,98400.13
2019-02-18T12:10:52.152Z,98404.06
2019-02-18T12:13:22.330Z,98390.34
2019-02-18T12:15:52.646Z,98398.27
2019-02-18T12:18:22.915Z,98380.39
2019-02-18T12:20:53.408Z,98385.18
2019-02-18T12:23:23.829Z,98376.51
2019-02-18T12:25:54.229Z,98374.32
2019-02-18T12:28:24.611Z,98367.98
2019-02-18T12:30:54.820Z,98373.45
2019-02-18T12:33:24.991Z,98361.84
2019-02-18T12:35:55.263Z,98357.48
2019-02-18T12:38:25.980Z,98354.37
2019-02-18T12:40:56.236Z,98344.17
2019-02-18T12:50:34.741Z,98318.69
2019-02-18T12:53:05.096Z,98322.01
2019-02-18T12:55:35.890Z,98319.89
2019-02-18T12:58:06.300Z,98312.69
2019-02-18T13:00:38.023Z,98314.19
2019-02-18T13:03:08.531Z,98303.63
2019-02-18T13:05:38.851Z,98306.27
2019-02-18T13:08:09.845Z,98298.46
2019-02-18T13:10:40.414Z,98296.98
2019-02-18T13:13:10.664Z,98299.73
2019-02-18T13:15:41.300Z,98288.00
2019-02-18T13:18:11.644Z,98287.88
2019-02-18T13:20:42.216Z,98285.13
2019-02-18T13:23:13.015Z,98282.31
2019-02-18T13:25:47.489Z,98280.59
2019-02-18T13:28:15.436Z,98285.34
2019-02-18T13:30:45.859Z,98279.92
2019-02-18T13:33:16.218Z,98275.84
2019-02-18T13:35:48.748Z,98271.88
2019-02-18T13:38:19.050Z,98274.38
2019-02-18T13:40:49.504Z,98263.49
2019-02-18T13:43:19.704Z,98257.95
2019-02-18T13:45:50.055Z,98258.18
2019-02-18T13:48:20.696Z,98257.53
2019-02-18T13:50:51.309Z,98259.48
2019-02-18T13:53:21.559Z,98250.13
2019-02-18T13:55:51.745Z,98252.93
2019-02-18T13:58:22.384Z,98246.94
2019-02-18T14:00:53.058Z,98242.91
2019-02-18T14:03:23.406Z,98246.77
2019-02-18T14:05:54.154Z,98235.84
2019-02-18T14:08:24.751Z,98241.02
2019-02-18T14:10:55.371Z,98238.98
2019-02-18T14:13:26.013Z,98234.61
2019-02-18T14:15:56.740Z,98237.89
2019-02-18T14:18:27.386Z,98242.63
2019-02-18T14:20:58.379Z,98238.88
2019-02-18T14:23:28.817Z,98232.00
2019-02-18T14:25:59.446Z,98221.49
2019-02-18T14:28:30.057Z,98221.34
2019-02-18T14:31:01.305Z,98224.73
2019-02-18T14:33:32.193Z,98216.35
2019-02-18T14:36:02.669Z,98219.10
2019-02-18T14:38:32.874Z,98216.20
2019-02-18T14:41:03.209Z,98219.74
2019-02-18T14:43:34.022Z,98223.18
2019-02-18T14:46:04.508Z,98217.75
2019-02-18T14:48:35.151Z,98223.13
2019-02-18T14:51:05.695Z,98215.90
2019-02-18T14:53:35.951Z,98216.23
2019-02-18T14:56:07.441Z,98210.50
2019-02-18T14:58:37.911Z,98211.88
2019-02-18T15:01:09.201Z,98207.86
2019-02-18T15:03:39.688Z,98213.38
2019-02-18T15:06:10.000Z,98210.63
2019-02-18T15:08:40.899Z,98205.23
2019-02-18T15:11:12.083Z,98201.88
2019-02-18T15:13:42.431Z,98200.11
2019-02-18T15:16:12.663Z,98203.17
2019-02-18T15:18:42.843Z,98199.34
2019-02-18T15:21:13.242Z,98196.80
2019-02-18T15:23:43.422Z,98193.20
2019-02-18T15:26:13.772Z,98190.27
2019-02-18T15:28:44.321Z,98196.23
2019-02-18T15:31:14.685Z,98185.38
2019-02-18T15:33:45.114Z,98179.30
2019-02-18T15:36:15.372Z,98180.02
2019-02-18T15:38:46.081Z,98170.23
2019-02-18T15:41:16.587Z,98174.94
2019-02-18T15:43:46.875Z,98165.11
2019-02-18T15:46:17.712Z,98165.65
2019-02-18T15:48:48.043Z,98164.23
2019-02-18T15:51:19.169Z,98165.92
2019-02-18T15:53:49.500Z,98162.70
2019-02-18T15:56:21.189Z,98166.01
2019-02-18T15:58:51.576Z,98162.41
2019-02-18T16:01:22.244Z,98164.39
2019-02-18T16:03:52.865Z,98165.03
2019-02-18T16:06:23.580Z,98153.22
2019-02-18T16:08:55.087Z,98158.46
2019-02-18T16:11:25.501Z,98153.66
2019-02-18T16:13:55.855Z,98150.66
2019-02-18T16:16:26.282Z,98149.94
2019-02-18T16:18:57.033Z,98151.14
2019-02-18T16:21:27.400Z,98150.16
2019-02-18T16:23:57.719Z,98145.78
2019-02-18T16:26:29.032Z,98154.18
2019-02-18T16:28:59.671Z,98145.83
2019-02-18T16:31:30.559Z,98145.33
2019-02-18T16:34:01.216Z,98146.14
2019-02-18T16:36:31.475Z,98143.30
2019-02-18T16:39:02.119Z,98148.55
2019-02-18T16:41:36.201Z,98152.27
2019-02-18T16:44:06.936Z,98148.01
2019-02-18T16:46:37.223Z,98147.41
2019-02-18T16:49:08.116Z,98154.53
2019-02-18T16:51:38.497Z,98151.19
2019-02-18T16:54:08.999Z,98158.09
2019-02-18T16:56:39.611Z,98158.41
2019-02-18T16:59:10.333Z,98155.39
2019-02-18T17:01:41.255Z,98161.35
2019-02-18T17:04:11.626Z,98161.35
2019-02-18T17:06:42.330Z,98157.77
2019-02-18T17:09:17.360Z,98164.12
2019-02-18T17:11:47.859Z,98167.04
2019-02-18T17:14:18.105Z,98170.95
2019-02-18T17:16:48.329Z,98176.04
2019-02-18T17:19:18.756Z,98181.80
2019-02-18T17:21:49.331Z,98180.98
2019-02-18T17:24:19.988Z,98178.70
2019-02-18T17:26:50.283Z,98179.08
2019-02-18T17:29:20.526Z,98179.84
2019-02-18T17:31:51.282Z,98182.48
2019-02-18T17:34:21.640Z,98174.61
2019-02-18T17:36:52.117Z,98185.34
2019-02-18T17:39:22.303Z,98179.28
2019-02-18T17:41:53.728Z,98185.59
2019-02-18T17:44:24.493Z,98182.53
2019-02-18T17:46:54.775Z,98189.55
2019-02-18T17:49:24.997Z,98184.77
2019-02-18T17:51:56.111Z,98185.65
2019-02-18T17:54:26.406Z,98184.58
2019-02-18T17:56:57.024Z,98185.41
2019-02-18T17:59:27.507Z,98186.30
2019-02-18T18:01:58.929Z,98190.92
2019-02-18T18:04:29.186Z,98195.02
2019-02-18T18:06:59.411Z,98198.82
2019-02-18T18:09:30.031Z,98197.61
2019-02-18T18:12:00.190Z,98198.49
2019-02-18T18:14:30.901Z,98196.45
2019-02-18T18:17:01.278Z,98198.41
2019-02-18T18:24:19.551Z,98193.74
2019-02-18T18:26:49.836Z,98200.23
2019-02-18T18:29:20.275Z,98201.87
2019-02-18T18:31:50.663Z,98194.62
2019-02-18T18:34:21.702Z,98203.50
2019-02-18T18:36:52.327Z,98204.88
2019-02-18T18:39:22.745Z,98197.37
2019-02-18T18:41:53.019Z,98198.70
2019-02-18T18:44:23.607Z,98198.19
2019-02-18T18:46:54.464Z,98201.14
2019-02-18T18:49:25.382Z,98207.33
2019-02-18T18:51:55.696Z,98205.95
2019-02-18T18:54:26.044Z,98212.66
2019-02-18T18:56:56.362Z,98206.42
2019-02-18T18:59:26.698Z,98209.08
2019-02-18T19:01:57.599Z,98208.77
2019-02-18T19:04:28.020Z,98215.44
2019-02-18T19:06:58.378Z,98214.31
2019-02-18T19:09:29.349Z,98208.36
2019-02-18T19:11:59.919Z,98218.97
2019-02-18T19:14:30.798Z,98217.84
2019-02-18T19:17:01.790Z,98217.02
2019-02-18T19:19:32.578Z,98221.00
2019-02-18T19:22:03.211Z,98221.00
2019-02-18T19:24:33.617Z,98219.32
2019-02-18T19:27:04.431Z,98222.52
2019-02-18T19:29:34.920Z,98224.89
2019-02-18T19:32:05.675Z,98231.84
2019-02-18T19:34:36.219Z,98230.97
2019-02-18T19:37:06.471Z,98230.94
2019-02-18T19:39:37.210Z,98229.55
2019-02-18T19:42:07.660Z,98239.34
2019-02-18T19:44:38.061Z,98242.75
2019-02-18T19:47:08.866Z,98242.96
2019-02-18T19:49:39.225Z,98235.34
2019-02-18T19:52:10.094Z,98247.87
2019-02-18T19:54:41.490Z,98249.77
2019-02-18T19:57:13.534Z,98247.20
2019-02-18T19:59:44.941Z,98248.17
2019-02-18T20:02:15.290Z,98242.73
2019-02-18T20:04:45.872Z,98254.43
2019-02-18T20:07:16.497Z,98251.43
2019-02-18T20:09:46.928Z,98251.23
2019-02-18T20:12:17.352Z,98241.52
2019-02-18T20:14:47.870Z,98250.43
2019-02-18T20:17:18.205Z,98248.28
2019-02-18T20:19:49.334Z,98248.39
2019-02-18T20:22:19.656Z,98244.60
2019-02-18T20:24:50.031Z,98249.31
2019-02-18T20:27:20.990Z,98246.30
2019-02-18T20:29:51.746Z,98251.12
2019-02-18T20:32:22.562Z,98260.64
2019-02-18T20:34:53.274Z,98253.41
2019-02-18T20:37:23.930Z,98258.03
2019-02-18T20:39:54.447Z,98259.88
2019-02-18T20:42:25.159Z,98259.14
2019-02-18T20:44:55.864Z,98264.42
2019-02-18T20:47:26.441Z,98262.91
2019-02-18T20:49:56.921Z,98266.56
2019-02-18T20:52:27.537Z,98268.31
2019-02-18T20:54:58.228Z,98270.12
2019-02-18T20:57:28.958Z,98266.27
2019-02-18T20:59:59.616Z,98269.87
2019-02-18T21:02:30.186Z,98271.01
2019-02-18T21:05:00.828Z,98259.50
2019-02-18T21:07:32.883Z,98258.13
2019-02-18T21:10:03.321Z,98263.61
2019-02-18T21:12:34.560Z,98265.19
2019-02-18T21:15:05.365Z,98265.28
2019-02-18T21:17:36.245Z,98267.33
2019-02-18T21:20:07.732Z,98267.58
2019-02-18T21:22:38.196Z,98265.63
2019-02-18T21:25:09.382Z,98263.33
2019-02-18T21:27:39.937Z,98268.08
2019-02-18T21:30:11.363Z,98265.72
2019-02-18T21:32:41.735Z,98269.66
2019-02-18T21:35:12.179Z,98266.38
2019-02-18T21:37:42.936Z,98270.63
2019-02-18T21:40:13.396Z,98274.05
2019-02-18T21:42:44.241Z,98273.48
2019-02-18T21:45:14.753Z,98275.41
2019-02-18T21:47:45.151Z,98275.22
2019-02-18T21:50:16.001Z,98276.13
2019-02-18T21:52:46.393Z,98281.46
2019-02-18T21:55:16.680Z,98281.95
2019-02-18T21:57:47.227Z,98289.38
2019-02-18T22:00:19.320Z,98285.72
2019-02-18T22:02:49.828Z,98277.84
2019-02-18T22:05:20.695Z,98282.54
2019-02-18T22:07:51.430Z,98294.13
2019-02-18T22:10:21.771Z,98288.30
2019-02-18T22:12:52.764Z,98286.14
2019-02-18T22:15:23.019Z,98286.14
2019-02-18T22:17:53.206Z,98290.86
2019-02-18T22:20:23.742Z,98297.09
2019-02-18T22:22:54.211Z,98296.06
2019-02-18T22:25:24.562Z,98291.67
2019-02-18T22:27:54.759Z,98292.05
2019-02-18T22:30:25.131Z,98290.97
2019-02-18T22:32:55.411Z,98297.75
2019-02-18T22:35:25.896Z,98300.22
2019-02-18T22:37:56.461Z,98303.33
2019-02-18T22:40:26.704Z,98295.82
2019-02-18T22:42:56.901Z,98299.44
2019-02-18T22:45:27.392Z,98300.02
2019-02-18T22:47:58.312Z,98298.11
2019-02-18T22:50:28.821Z,98300.63
2019-02-18T22:52:59.317Z,98299.30
2019-02-18T22:55:29.699Z,98301.66
2019-02-18T22:58:01.440Z,98300.95
2019-02-18T23:00:59.700Z,98304.98
2019-02-18T23:03:30.375Z,98307.98
2019-02-18T23:06:00.809Z,98310.70
2019-02-18T23:08:31.011Z,98311.31
2019-02-18T23:11:01.559Z,98312.20
2019-02-18T23:13:31.814Z,98309.14
2019-02-18T23:16:02.184Z,98315.34
2019-02-18T23:18:32.610Z,98317.94
2019-02-18T23:21:02.940Z,98321.28
2019-02-18T23:23:33.244Z,98322.53
2019-02-18T23:26:03.714Z,98327.42
2019-02-18T23:28:33.893Z,98319.92
2019-02-18T23:31:04.286Z,98325.98
2019-02-18T23:33:34.395Z,98333.51
2019-02-18T23:36:05.006Z,98336.25
2019-02-18T23:38:35.291Z,98330.31
2019-02-18T23:41:05.789Z,98331.84
2019-02-18T23:43:35.942Z,98331.34
2019-02-18T23:46:06.117Z,98340.13
2019-02-18T23:48:36.366Z,98344.35
2019-02-18T23:51:06.656Z,98344.39
2019-02-18T23:53:36.807Z,98347.36
2019-02-18T23:56:07.058Z,98353.66
2019-02-18T23:58:37.266Z,98350.69
